sensor_id;sensor_type;location;lat;lon;timestamp;temperature;humidity
22771;DHT22;11552;50.786;4.332;2022-09-09T00:00:18;16.40;99.90
22771;DHT22;11552;50.786;4.332;2022-09-09T00:02:45;16.60;99.90
22771;DHT22;11552;50.786;4.332;2022-09-09T00:07:58;16.40;99.90
22771;DHT22;11552;50.786;4.332;2022-09-09T00:10:39;16.30;99.90
22771;DHT22;11552;50.786;4.332;2022-09-09T00:15:40;16.20;99.90
22771;DHT22;11552;50.786;4.332;2022-09-09T00:18:12;16.20;99.90
22771;DHT22;11552;50.786;4.332;2022-09-09T00:21:14;16.10;99.90
22771;DHT22;11552;50.786;4.332;2022-09-09T00:23:39;16.00;99.90
22771;DHT22;11552;50.786;4.332;2022-09-09T00:31:33;16.30;99.90
22771;DHT22;11552;50.786;4.332;2022-09-09T00:34:05;16.30;99.90
22771;DHT22;11552;50.786;4.332;2022-09-09T00:36:35;16.30;99.90
22771;DHT22;11552;50.786;4.332;2022-09-09T00:39:01;16.50;99.90
22771;DHT22;11552;50.786;4.332;2022-09-09T00:43:56;16.60;99.90
22771;DHT22;11552;50.786;4.332;2022-09-09T00:59:28;16.40;99.90
22771;DHT22;11552;50.786;4.332;2022-09-09T01:01:57;16.40;99.90
22771;DHT22;11552;50.786;4.332;2022-09-09T01:04:29;16.50;99.90
22771;DHT22;11552;50.786;4.332;2022-09-09T01:07:04;16.60;99.90
22771;DHT22;11552;50.786;4.332;2022-09-09T01:09:38;16.60;99.90
22771;DHT22;11552;50.786;4.332;2022-09-09T01:22:33;16.70;99.90
22771;DHT22;11552;50.786;4.332;2022-09-09T01:27:35;16.60;99.90
22771;DHT22;11552;50.786;4.332;2022-09-09T01:30:01;16.50;99.90
22771;DHT22;11552;50.786;4.332;2022-09-09T01:35:10;16.50;99.90
22771;DHT22;11552;50.786;4.332;2022-09-09T01:37:36;16.60;99.90
22771;DHT22;11552;50.786;4.332;2022-09-09T01:40:02;16.40;99.90
22771;DHT22;11552;50.786;4.332;2022-09-09T01:42:27;16.50;99.90
22771;DHT22;11552;50.786;4.332;2022-09-09T01:44:53;16.50;99.90
22771;DHT22;11552;50.786;4.332;2022-09-09T01:47:19;16.40;99.90
22771;DHT22;11552;50.786;4.332;2022-09-09T01:49:45;16.40;99.90
22771;DHT22;11552;50.786;4.332;2022-09-09T01:52:11;16.40;99.90
22771;DHT22;11552;50.786;4.332;2022-09-09T01:54:36;16.40;99.90
22771;DHT22;11552;50.786;4.332;2022-09-09T02:02:19;16.30;99.90
22771;DHT22;11552;50.786;4.332;2022-09-09T02:04:49;16.20;99.90
22771;DHT22;11552;50.786;4.332;2022-09-09T02:09:44;16.30;99.90
22771;DHT22;11552;50.786;4.332;2022-09-09T02:12:13;16.30;99.90
22771;DHT22;11552;50.786;4.332;2022-09-09T02:14:41;16.30;99.90
22771;DHT22;11552;50.786;4.332;2022-09-09T02:17:08;16.30;99.90
22771;DHT22;11552;50.786;4.332;2022-09-09T02:19:36;16.20;99.90
22771;DHT22;11552;50.786;4.332;2022-09-09T02:22:02;16.20;99.90
22771;DHT22;11552;50.786;4.332;2022-09-09T02:24:29;16.20;99.90
22771;DHT22;11552;50.786;4.332;2022-09-09T02:26:55;16.20;99.90
22771;DHT22;11552;50.786;4.332;2022-09-09T02:29:26;16.20;99.90
22771;DHT22;11552;50.786;4.332;2022-09-09T02:31:53;16.30;99.90
22771;DHT22;11552;50.786;4.332;2022-09-09T02:34:21;16.20;99.90
22771;DHT22;11552;50.786;4.332;2022-09-09T02:36:49;16.10;99.90
22771;DHT22;11552;50.786;4.332;2022-09-09T02:39:16;16.00;99.90
22771;DHT22;11552;50.786;4.332;2022-09-09T02:41:42;16.00;99.90
22771;DHT22;11552;50.786;4.332;2022-09-09T02:44:11;16.00;99.90
22771;DHT22;11552;50.786;4.332;2022-09-09T02:49:16;16.20;99.90
22771;DHT22;11552;50.786;4.332;2022-09-09T02:56:35;16.10;99.90
22771;DHT22;11552;50.786;4.332;2022-09-09T02:59:03;16.10;99.90
22771;DHT22;11552;50.786;4.332;2022-09-09T03:01:29;16.10;99.90
22771;DHT22;11552;50.786;4.332;2022-09-09T03:03:54;16.10;99.90
22771;DHT22;11552;50.786;4.332;2022-09-09T03:06:20;16.00;99.90
22771;DHT22;11552;50.786;4.332;2022-09-09T03:08:45;15.90;99.90
22771;DHT22;11552;50.786;4.332;2022-09-09T03:11:11;15.90;99.90
22771;DHT22;11552;50.786;4.332;2022-09-09T03:13:37;15.80;99.90
22771;DHT22;11552;50.786;4.332;2022-09-09T03:16:03;15.80;99.90
22771;DHT22;11552;50.786;4.332;2022-09-09T03:18:29;15.90;99.90
22771;DHT22;11552;50.786;4.332;2022-09-09T03:20:54;16.00;99.90
22771;DHT22;11552;50.786;4.332;2022-09-09T03:23:20;16.00;99.90
22771;DHT22;11552;50.786;4.332;2022-09-09T03:25:47;16.00;99.90
22771;DHT22;11552;50.786;4.332;2022-09-09T03:28:13;15.90;99.90
22771;DHT22;11552;50.786;4.332;2022-09-09T03:30:39;15.90;99.90
22771;DHT22;11552;50.786;4.332;2022-09-09T03:33:05;15.90;99.90
22771;DHT22;11552;50.786;4.332;2022-09-09T03:35:30;16.00;99.90
22771;DHT22;11552;50.786;4.332;2022-09-09T03:37:56;16.00;99.90
22771;DHT22;11552;50.786;4.332;2022-09-09T03:40:21;15.90;99.90
22771;DHT22;11552;50.786;4.332;2022-09-09T03:42:47;15.90;99.90
22771;DHT22;11552;50.786;4.332;2022-09-09T03:45:14;15.90;99.90
22771;DHT22;11552;50.786;4.332;2022-09-09T03:47:39;15.90;99.90
22771;DHT22;11552;50.786;4.332;2022-09-09T03:50:06;15.90;99.90
22771;DHT22;11552;50.786;4.332;2022-09-09T03:52:37;15.90;99.90
22771;DHT22;11552;50.786;4.332;2022-09-09T03:55:03;15.90;99.90
22771;DHT22;11552;50.786;4.332;2022-09-09T03:57:29;15.90;99.90
22771;DHT22;11552;50.786;4.332;2022-09-09T03:59:55;16.10;99.90
22771;DHT22;11552;50.786;4.332;2022-09-09T04:02:20;16.20;99.90
22771;DHT22;11552;50.786;4.332;2022-09-09T04:04:46;16.40;99.90
22771;DHT22;11552;50.786;4.332;2022-09-09T04:07:12;16.30;99.90
22771;DHT22;11552;50.786;4.332;2022-09-09T04:09:38;16.30;99.90
22771;DHT22;11552;50.786;4.332;2022-09-09T04:12:03;16.30;99.90
22771;DHT22;11552;50.786;4.332;2022-09-09T04:14:29;16.20;99.90
22771;DHT22;11552;50.786;4.332;2022-09-09T04:16:55;16.20;99.90
22771;DHT22;11552;50.786;4.332;2022-09-09T04:19:22;16.20;99.90
22771;DHT22;11552;50.786;4.332;2022-09-09T04:21:48;16.00;99.90
22771;DHT22;11552;50.786;4.332;2022-09-09T04:24:15;16.10;99.90
22771;DHT22;11552;50.786;4.332;2022-09-09T04:26:41;16.10;99.90
22771;DHT22;11552;50.786;4.332;2022-09-09T04:29:07;16.00;99.90
22771;DHT22;11552;50.786;4.332;2022-09-09T04:31:33;15.90;99.90
22771;DHT22;11552;50.786;4.332;2022-09-09T04:33:58;16.00;99.90
22771;DHT22;11552;50.786;4.332;2022-09-09T04:36:27;16.10;99.90
22771;DHT22;11552;50.786;4.332;2022-09-09T04:38:53;16.00;99.90
22771;DHT22;11552;50.786;4.332;2022-09-09T04:41:18;16.00;99.90
22771;DHT22;11552;50.786;4.332;2022-09-09T04:43:44;16.00;99.90
22771;DHT22;11552;50.786;4.332;2022-09-09T04:46:09;15.90;99.90
22771;DHT22;11552;50.786;4.332;2022-09-09T04:48:35;15.90;99.90
22771;DHT22;11552;50.786;4.332;2022-09-09T04:51:02;16.00;99.90
22771;DHT22;11552;50.786;4.332;2022-09-09T04:53:29;15.90;99.90
22771;DHT22;11552;50.786;4.332;2022-09-09T04:56:01;15.90;99.90
22771;DHT22;11552;50.786;4.332;2022-09-09T04:58:27;15.90;99.90
22771;DHT22;11552;50.786;4.332;2022-09-09T05:00:52;16.00;99.90
22771;DHT22;11552;50.786;4.332;2022-09-09T05:03:18;16.00;99.90
22771;DHT22;11552;50.786;4.332;2022-09-09T05:05:44;15.90;99.90
22771;DHT22;11552;50.786;4.332;2022-09-09T05:08:10;15.90;99.90
22771;DHT22;11552;50.786;4.332;2022-09-09T05:10:36;15.90;99.90
22771;DHT22;11552;50.786;4.332;2022-09-09T05:13:02;16.00;99.90
22771;DHT22;11552;50.786;4.332;2022-09-09T05:15:29;16.10;99.90
22771;DHT22;11552;50.786;4.332;2022-09-09T05:17:58;16.20;99.90
22771;DHT22;11552;50.786;4.332;2022-09-09T05:20:24;16.10;99.90
22771;DHT22;11552;50.786;4.332;2022-09-09T05:22:52;16.20;99.90
22771;DHT22;11552;50.786;4.332;2022-09-09T05:25:18;16.20;99.90
22771;DHT22;11552;50.786;4.332;2022-09-09T05:27:44;16.20;99.90
22771;DHT22;11552;50.786;4.332;2022-09-09T05:30:10;16.30;99.90
22771;DHT22;11552;50.786;4.332;2022-09-09T05:32:36;16.30;99.90
22771;DHT22;11552;50.786;4.332;2022-09-09T05:35:02;16.40;99.90
22771;DHT22;11552;50.786;4.332;2022-09-09T05:37:28;16.40;99.90
22771;DHT22;11552;50.786;4.332;2022-09-09T05:39:55;16.40;99.90
22771;DHT22;11552;50.786;4.332;2022-09-09T05:42:20;16.40;99.90
22771;DHT22;11552;50.786;4.332;2022-09-09T05:44:46;16.40;99.90
22771;DHT22;11552;50.786;4.332;2022-09-09T05:47:11;16.40;99.90
22771;DHT22;11552;50.786;4.332;2022-09-09T05:49:37;16.40;99.90
22771;DHT22;11552;50.786;4.332;2022-09-09T05:52:02;16.50;99.90
22771;DHT22;11552;50.786;4.332;2022-09-09T05:54:29;16.40;99.90
22771;DHT22;11552;50.786;4.332;2022-09-09T05:56:55;16.40;99.90
22771;DHT22;11552;50.786;4.332;2022-09-09T05:59:20;16.40;99.90
22771;DHT22;11552;50.786;4.332;2022-09-09T06:01:48;16.70;99.90
22771;DHT22;11552;50.786;4.332;2022-09-09T06:04:13;16.90;99.90
22771;DHT22;11552;50.786;4.332;2022-09-09T06:06:39;17.00;99.90
22771;DHT22;11552;50.786;4.332;2022-09-09T06:09:06;17.20;99.90
22771;DHT22;11552;50.786;4.332;2022-09-09T06:11:35;17.20;99.90
22771;DHT22;11552;50.786;4.332;2022-09-09T06:14:01;17.30;99.90
22771;DHT22;11552;50.786;4.332;2022-09-09T06:16:27;17.40;99.90
22771;DHT22;11552;50.786;4.332;2022-09-09T06:18:53;17.40;99.90
22771;DHT22;11552;50.786;4.332;2022-09-09T06:21:25;17.30;99.90
22771;DHT22;11552;50.786;4.332;2022-09-09T06:23:51;17.30;99.90
22771;DHT22;11552;50.786;4.332;2022-09-09T06:26:17;17.10;99.90
22771;DHT22;11552;50.786;4.332;2022-09-09T06:28:47;17.20;99.90
22771;DHT22;11552;50.786;4.332;2022-09-09T06:31:14;17.30;99.90
22771;DHT22;11552;50.786;4.332;2022-09-09T06:33:41;17.40;99.90
22771;DHT22;11552;50.786;4.332;2022-09-09T06:36:11;17.30;99.90
22771;DHT22;11552;50.786;4.332;2022-09-09T06:38:37;17.20;99.90
22771;DHT22;11552;50.786;4.332;2022-09-09T06:41:03;17.10;99.90
22771;DHT22;11552;50.786;4.332;2022-09-09T06:43:28;17.00;99.90
22771;DHT22;11552;50.786;4.332;2022-09-09T06:45:55;17.00;99.90
22771;DHT22;11552;50.786;4.332;2022-09-09T06:48:20;17.20;99.90
22771;DHT22;11552;50.786;4.332;2022-09-09T06:50:46;17.30;99.90
22771;DHT22;11552;50.786;4.332;2022-09-09T06:53:12;17.30;99.90
22771;DHT22;11552;50.786;4.332;2022-09-09T06:55:37;17.30;99.90
22771;DHT22;11552;50.786;4.332;2022-09-09T06:58:07;17.50;99.90
22771;DHT22;11552;50.786;4.332;2022-09-09T07:00:33;17.60;99.90
22771;DHT22;11552;50.786;4.332;2022-09-09T07:02:58;17.70;99.90
22771;DHT22;11552;50.786;4.332;2022-09-09T07:05:24;17.70;99.90
22771;DHT22;11552;50.786;4.332;2022-09-09T07:07:51;17.70;99.90
22771;DHT22;11552;50.786;4.332;2022-09-09T07:10:17;17.70;99.90
22771;DHT22;11552;50.786;4.332;2022-09-09T07:12:42;17.70;99.90
22771;DHT22;11552;50.786;4.332;2022-09-09T07:15:08;17.80;99.90
22771;DHT22;11552;50.786;4.332;2022-09-09T07:17:34;17.60;99.90
22771;DHT22;11552;50.786;4.332;2022-09-09T07:19:59;17.60;99.90
22771;DHT22;11552;50.786;4.332;2022-09-09T07:22:25;17.60;99.90
22771;DHT22;11552;50.786;4.332;2022-09-09T07:24:52;17.60;99.90
22771;DHT22;11552;50.786;4.332;2022-09-09T07:27:18;17.40;99.90
22771;DHT22;11552;50.786;4.332;2022-09-09T07:29:43;17.50;99.90
22771;DHT22;11552;50.786;4.332;2022-09-09T07:32:10;17.50;99.90
22771;DHT22;11552;50.786;4.332;2022-09-09T07:34:36;17.40;99.90
22771;DHT22;11552;50.786;4.332;2022-09-09T07:37:02;17.60;99.90
22771;DHT22;11552;50.786;4.332;2022-09-09T07:39:27;17.50;99.90
22771;DHT22;11552;50.786;4.332;2022-09-09T07:41:53;17.30;99.90
22771;DHT22;11552;50.786;4.332;2022-09-09T07:44:20;17.20;99.90
22771;DHT22;11552;50.786;4.332;2022-09-09T07:46:50;16.90;99.90
22771;DHT22;11552;50.786;4.332;2022-09-09T07:49:15;16.80;99.90
22771;DHT22;11552;50.786;4.332;2022-09-09T07:51:42;17.00;99.90
22771;DHT22;11552;50.786;4.332;2022-09-09T07:54:09;17.10;99.90
22771;DHT22;11552;50.786;4.332;2022-09-09T07:56:35;17.50;99.90
22771;DHT22;11552;50.786;4.332;2022-09-09T07:59:02;17.70;99.90
22771;DHT22;11552;50.786;4.332;2022-09-09T08:01:35;17.80;99.90
22771;DHT22;11552;50.786;4.332;2022-09-09T08:04:14;18.00;99.90
22771;DHT22;11552;50.786;4.332;2022-09-09T08:06:41;18.20;99.90
22771;DHT22;11552;50.786;4.332;2022-09-09T08:09:08;18.30;99.90
22771;DHT22;11552;50.786;4.332;2022-09-09T08:11:34;19.00;99.90
22771;DHT22;11552;50.786;4.332;2022-09-09T08:14:01;19.50;99.90
22771;DHT22;11552;50.786;4.332;2022-09-09T08:16:28;20.20;99.90
22771;DHT22;11552;50.786;4.332;2022-09-09T08:18:55;20.50;99.90
22771;DHT22;11552;50.786;4.332;2022-09-09T08:21:25;20.50;99.90
22771;DHT22;11552;50.786;4.332;2022-09-09T08:23:52;20.30;99.90
22771;DHT22;11552;50.786;4.332;2022-09-09T08:26:19;20.20;99.90
22771;DHT22;11552;50.786;4.332;2022-09-09T08:28:48;19.90;99.90
22771;DHT22;11552;50.786;4.332;2022-09-09T08:31:20;19.50;99.90
22771;DHT22;11552;50.786;4.332;2022-09-09T08:33:46;19.20;99.90
22771;DHT22;11552;50.786;4.332;2022-09-09T08:36:13;18.90;99.90
22771;DHT22;11552;50.786;4.332;2022-09-09T08:38:41;19.00;99.90
22771;DHT22;11552;50.786;4.332;2022-09-09T08:43:35;18.80;99.90
22771;DHT22;11552;50.786;4.332;2022-09-09T08:46:04;18.50;99.90
22771;DHT22;11552;50.786;4.332;2022-09-09T08:51:01;18.20;99.90
22771;DHT22;11552;50.786;4.332;2022-09-09T08:53:30;18.50;99.90
22771;DHT22;11552;50.786;4.332;2022-09-09T08:56:00;18.60;99.90
22771;DHT22;11552;50.786;4.332;2022-09-09T08:58:27;18.40;99.90
22771;DHT22;11552;50.786;4.332;2022-09-09T09:01:00;18.30;99.90
22771;DHT22;11552;50.786;4.332;2022-09-09T09:03:32;18.20;99.90
22771;DHT22;11552;50.786;4.332;2022-09-09T09:06:11;18.10;99.90
22771;DHT22;11552;50.786;4.332;2022-09-09T09:09:00;18.00;99.90
22771;DHT22;11552;50.786;4.332;2022-09-09T09:11:26;17.90;99.90
22771;DHT22;11552;50.786;4.332;2022-09-09T09:13:54;17.90;99.90
22771;DHT22;11552;50.786;4.332;2022-09-09T09:16:25;17.70;99.90
22771;DHT22;11552;50.786;4.332;2022-09-09T09:18:52;17.60;99.90
22771;DHT22;11552;50.786;4.332;2022-09-09T09:23:55;17.40;99.90
22771;DHT22;11552;50.786;4.332;2022-09-09T09:26:23;17.30;99.90
22771;DHT22;11552;50.786;4.332;2022-09-09T09:28:49;17.30;99.90
22771;DHT22;11552;50.786;4.332;2022-09-09T09:31:19;17.40;99.90
22771;DHT22;11552;50.786;4.332;2022-09-09T09:33:49;17.50;99.90
22771;DHT22;11552;50.786;4.332;2022-09-09T09:36:15;17.60;99.90
22771;DHT22;11552;50.786;4.332;2022-09-09T09:38:51;17.70;99.90
22771;DHT22;11552;50.786;4.332;2022-09-09T09:41:17;17.70;99.90
22771;DHT22;11552;50.786;4.332;2022-09-09T09:43:54;17.80;99.90
22771;DHT22;11552;50.786;4.332;2022-09-09T09:46:21;17.80;99.90
22771;DHT22;11552;50.786;4.332;2022-09-09T09:49:04;17.80;99.90
22771;DHT22;11552;50.786;4.332;2022-09-09T09:51:31;17.80;99.90
22771;DHT22;11552;50.786;4.332;2022-09-09T09:56:32;17.80;99.90
22771;DHT22;11552;50.786;4.332;2022-09-09T09:58:57;17.70;99.90
22771;DHT22;11552;50.786;4.332;2022-09-09T10:01:31;17.70;99.90
22771;DHT22;11552;50.786;4.332;2022-09-09T10:03:59;17.80;99.90
22771;DHT22;11552;50.786;4.332;2022-09-09T10:06:29;17.90;99.90
22771;DHT22;11552;50.786;4.332;2022-09-09T10:08:55;17.90;99.90
22771;DHT22;11552;50.786;4.332;2022-09-09T10:11:26;17.90;99.90
22771;DHT22;11552;50.786;4.332;2022-09-09T10:16:52;17.70;99.90
22771;DHT22;11552;50.786;4.332;2022-09-09T10:19:26;17.80;99.90
22771;DHT22;11552;50.786;4.332;2022-09-09T10:40:33;18.40;99.90
22771;DHT22;11552;50.786;4.332;2022-09-09T10:43:02;18.20;99.90
22771;DHT22;11552;50.786;4.332;2022-09-09T10:45:46;18.10;99.90
22771;DHT22;11552;50.786;4.332;2022-09-09T10:48:26;18.60;99.90
22771;DHT22;11552;50.786;4.332;2022-09-09T10:53:32;19.00;99.90
22771;DHT22;11552;50.786;4.332;2022-09-09T10:56:05;19.10;99.90
22771;DHT22;11552;50.786;4.332;2022-09-09T10:58:33;19.30;99.90
22771;DHT22;11552;50.786;4.332;2022-09-09T11:01:03;19.60;99.90
22771;DHT22;11552;50.786;4.332;2022-09-09T11:03:32;19.50;99.90
22771;DHT22;11552;50.786;4.332;2022-09-09T11:06:04;19.60;99.90
22771;DHT22;11552;50.786;4.332;2022-09-09T11:08:31;19.60;99.90
22771;DHT22;11552;50.786;4.332;2022-09-09T11:11:00;19.40;99.90
22771;DHT22;11552;50.786;4.332;2022-09-09T11:18:39;19.80;99.90
22771;DHT22;11552;50.786;4.332;2022-09-09T11:21:10;19.80;99.90
22771;DHT22;11552;50.786;4.332;2022-09-09T11:23:41;19.80;99.90
22771;DHT22;11552;50.786;4.332;2022-09-09T11:26:10;19.60;99.90
22771;DHT22;11552;50.786;4.332;2022-09-09T11:36:27;19.70;99.90
22771;DHT22;11552;50.786;4.332;2022-09-09T11:41:33;19.80;99.90
22771;DHT22;11552;50.786;4.332;2022-09-09T11:44:00;19.50;99.90
22771;DHT22;11552;50.786;4.332;2022-09-09T11:46:36;19.50;99.90
22771;DHT22;11552;50.786;4.332;2022-09-09T11:49:04;19.60;99.90
22771;DHT22;11552;50.786;4.332;2022-09-09T11:51:31;19.90;99.90
22771;DHT22;11552;50.786;4.332;2022-09-09T11:54:00;19.90;99.90
22771;DHT22;11552;50.786;4.332;2022-09-09T11:56:29;19.90;99.90
22771;DHT22;11552;50.786;4.332;2022-09-09T11:58:57;19.80;99.90
22771;DHT22;11552;50.786;4.332;2022-09-09T12:03:54;19.90;99.90
22771;DHT22;11552;50.786;4.332;2022-09-09T12:06:30;20.10;99.90
22771;DHT22;11552;50.786;4.332;2022-09-09T12:09:10;20.10;99.90
22771;DHT22;11552;50.786;4.332;2022-09-09T12:11:38;19.80;99.90
22771;DHT22;11552;50.786;4.332;2022-09-09T12:14:04;19.40;99.90
22771;DHT22;11552;50.786;4.332;2022-09-09T12:16:33;19.40;99.90
22771;DHT22;11552;50.786;4.332;2022-09-09T12:19:12;19.50;99.90
22771;DHT22;11552;50.786;4.332;2022-09-09T12:21:44;19.30;99.90
22771;DHT22;11552;50.786;4.332;2022-09-09T12:24:20;19.40;99.90
22771;DHT22;11552;50.786;4.332;2022-09-09T12:26:52;19.50;99.90
22771;DHT22;11552;50.786;4.332;2022-09-09T12:29:26;19.80;99.90
22771;DHT22;11552;50.786;4.332;2022-09-09T12:37:06;20.40;99.90
22771;DHT22;11552;50.786;4.332;2022-09-09T12:39:39;20.50;99.90
22771;DHT22;11552;50.786;4.332;2022-09-09T12:42:15;20.50;99.90
22771;DHT22;11552;50.786;4.332;2022-09-09T12:44:50;20.50;99.90
22771;DHT22;11552;50.786;4.332;2022-09-09T12:47:15;20.80;99.90
22771;DHT22;11552;50.786;4.332;2022-09-09T12:49:41;20.70;99.90
22771;DHT22;11552;50.786;4.332;2022-09-09T12:52:13;20.60;99.90
22771;DHT22;11552;50.786;4.332;2022-09-09T12:54:44;20.50;99.90
22771;DHT22;11552;50.786;4.332;2022-09-09T12:57:13;20.60;99.90
22771;DHT22;11552;50.786;4.332;2022-09-09T12:59:40;20.60;99.90
22771;DHT22;11552;50.786;4.332;2022-09-09T13:02:14;20.60;99.90
22771;DHT22;11552;50.786;4.332;2022-09-09T13:04:41;20.40;99.90
22771;DHT22;11552;50.786;4.332;2022-09-09T13:07:07;20.40;99.90
22771;DHT22;11552;50.786;4.332;2022-09-09T13:09:35;20.50;99.90
22771;DHT22;11552;50.786;4.332;2022-09-09T13:12:00;20.50;99.90
22771;DHT22;11552;50.786;4.332;2022-09-09T13:14:29;20.50;99.90
22771;DHT22;11552;50.786;4.332;2022-09-09T13:17:01;20.60;99.90
22771;DHT22;11552;50.786;4.332;2022-09-09T13:19:29;20.70;99.90
22771;DHT22;11552;50.786;4.332;2022-09-09T13:21:56;20.90;99.90
22771;DHT22;11552;50.786;4.332;2022-09-09T13:24:32;21.20;99.90
22771;DHT22;11552;50.786;4.332;2022-09-09T13:27:00;21.20;99.90
22771;DHT22;11552;50.786;4.332;2022-09-09T13:29:29;21.20;99.90
22771;DHT22;11552;50.786;4.332;2022-09-09T13:32:03;21.30;99.90
22771;DHT22;11552;50.786;4.332;2022-09-09T13:34:30;21.30;99.90
22771;DHT22;11552;50.786;4.332;2022-09-09T13:36:59;21.50;99.90
22771;DHT22;11552;50.786;4.332;2022-09-09T13:39:26;21.90;99.90
22771;DHT22;11552;50.786;4.332;2022-09-09T13:41:55;21.90;99.90
22771;DHT22;11552;50.786;4.332;2022-09-09T13:44:22;21.90;99.90
22771;DHT22;11552;50.786;4.332;2022-09-09T13:46:59;22.20;99.90
22771;DHT22;11552;50.786;4.332;2022-09-09T13:49:24;22.20;99.90
22771;DHT22;11552;50.786;4.332;2022-09-09T13:52:02;22.30;99.90
22771;DHT22;11552;50.786;4.332;2022-09-09T13:54:28;22.00;99.90
22771;DHT22;11552;50.786;4.332;2022-09-09T13:56:55;21.80;99.90
22771;DHT22;11552;50.786;4.332;2022-09-09T13:59:21;21.90;99.90
22771;DHT22;11552;50.786;4.332;2022-09-09T14:01:47;21.90;99.90
22771;DHT22;11552;50.786;4.332;2022-09-09T14:04:14;21.60;99.90
22771;DHT22;11552;50.786;4.332;2022-09-09T14:06:40;21.60;99.90
22771;DHT22;11552;50.786;4.332;2022-09-09T14:09:09;21.60;99.90
22771;DHT22;11552;50.786;4.332;2022-09-09T14:11:34;21.30;99.90
22771;DHT22;11552;50.786;4.332;2022-09-09T14:14:00;21.20;99.90
22771;DHT22;11552;50.786;4.332;2022-09-09T14:16:26;21.20;99.90
22771;DHT22;11552;50.786;4.332;2022-09-09T14:18:53;21.10;99.90
22771;DHT22;11552;50.786;4.332;2022-09-09T14:21:21;21.10;99.90
22771;DHT22;11552;50.786;4.332;2022-09-09T14:23:46;21.10;99.90
22771;DHT22;11552;50.786;4.332;2022-09-09T14:26:13;21.10;99.90
22771;DHT22;11552;50.786;4.332;2022-09-09T14:28:38;21.20;99.90
22771;DHT22;11552;50.786;4.332;2022-09-09T14:31:05;21.50;99.90
22771;DHT22;11552;50.786;4.332;2022-09-09T14:33:31;21.80;99.90
22771;DHT22;11552;50.786;4.332;2022-09-09T14:35:57;21.60;99.90
22771;DHT22;11552;50.786;4.332;2022-09-09T14:38:23;21.50;99.90
22771;DHT22;11552;50.786;4.332;2022-09-09T14:40:48;21.40;99.90
22771;DHT22;11552;50.786;4.332;2022-09-09T14:43:14;21.20;99.90
22771;DHT22;11552;50.786;4.332;2022-09-09T14:45:40;21.40;99.90
22771;DHT22;11552;50.786;4.332;2022-09-09T14:48:05;21.30;99.90
22771;DHT22;11552;50.786;4.332;2022-09-09T14:50:31;21.30;99.90
22771;DHT22;11552;50.786;4.332;2022-09-09T14:52:56;21.40;99.90
22771;DHT22;11552;50.786;4.332;2022-09-09T14:55:22;21.30;99.90
22771;DHT22;11552;50.786;4.332;2022-09-09T14:57:47;21.30;99.90
22771;DHT22;11552;50.786;4.332;2022-09-09T15:00:13;21.30;99.90
22771;DHT22;11552;50.786;4.332;2022-09-09T15:02:39;21.20;99.90
22771;DHT22;11552;50.786;4.332;2022-09-09T15:05:05;21.20;99.90
22771;DHT22;11552;50.786;4.332;2022-09-09T15:07:30;21.10;99.90
22771;DHT22;11552;50.786;4.332;2022-09-09T15:09:57;21.20;99.90
22771;DHT22;11552;50.786;4.332;2022-09-09T15:12:23;21.40;99.90
22771;DHT22;11552;50.786;4.332;2022-09-09T15:14:48;21.60;99.90
22771;DHT22;11552;50.786;4.332;2022-09-09T15:17:15;21.80;99.90
22771;DHT22;11552;50.786;4.332;2022-09-09T15:19:41;21.80;99.90
22771;DHT22;11552;50.786;4.332;2022-09-09T15:22:07;21.70;99.90
22771;DHT22;11552;50.786;4.332;2022-09-09T15:24:33;21.60;99.90
22771;DHT22;11552;50.786;4.332;2022-09-09T15:26:59;21.40;99.90
22771;DHT22;11552;50.786;4.332;2022-09-09T15:29:25;21.30;99.90
22771;DHT22;11552;50.786;4.332;2022-09-09T15:31:50;21.20;99.90
22771;DHT22;11552;50.786;4.332;2022-09-09T15:34:16;20.90;99.90
22771;DHT22;11552;50.786;4.332;2022-09-09T15:36:43;20.50;99.90
22771;DHT22;11552;50.786;4.332;2022-09-09T15:39:10;20.30;99.90
22771;DHT22;11552;50.786;4.332;2022-09-09T15:41:38;20.30;99.90
22771;DHT22;11552;50.786;4.332;2022-09-09T15:44:03;20.30;99.90
22771;DHT22;11552;50.786;4.332;2022-09-09T15:46:33;20.30;99.90
22771;DHT22;11552;50.786;4.332;2022-09-09T15:49:08;20.40;99.90
22771;DHT22;11552;50.786;4.332;2022-09-09T15:51:40;20.60;99.90
22771;DHT22;11552;50.786;4.332;2022-09-09T15:54:07;20.80;99.90
22771;DHT22;11552;50.786;4.332;2022-09-09T15:56:33;21.00;99.90
22771;DHT22;11552;50.786;4.332;2022-09-09T15:59:00;21.10;99.90
22771;DHT22;11552;50.786;4.332;2022-09-09T16:01:26;21.20;99.90
22771;DHT22;11552;50.786;4.332;2022-09-09T16:03:52;21.00;99.90
22771;DHT22;11552;50.786;4.332;2022-09-09T16:06:19;21.10;99.90
22771;DHT22;11552;50.786;4.332;2022-09-09T16:08:47;21.10;99.90
22771;DHT22;11552;50.786;4.332;2022-09-09T16:11:14;21.00;99.90
22771;DHT22;11552;50.786;4.332;2022-09-09T16:13:41;21.00;99.90
22771;DHT22;11552;50.786;4.332;2022-09-09T16:16:07;20.80;99.90
22771;DHT22;11552;50.786;4.332;2022-09-09T16:18:54;20.60;99.90
22771;DHT22;11552;50.786;4.332;2022-09-09T16:21:19;20.50;99.90
22771;DHT22;11552;50.786;4.332;2022-09-09T16:23:45;20.40;99.90
22771;DHT22;11552;50.786;4.332;2022-09-09T16:26:11;19.70;99.90
22771;DHT22;11552;50.786;4.332;2022-09-09T16:28:37;19.50;99.90
22771;DHT22;11552;50.786;4.332;2022-09-09T16:31:06;19.20;99.90
22771;DHT22;11552;50.786;4.332;2022-09-09T16:33:32;19.10;99.90
22771;DHT22;11552;50.786;4.332;2022-09-09T16:35:57;19.00;99.90
22771;DHT22;11552;50.786;4.332;2022-09-09T16:38:23;19.10;99.90
22771;DHT22;11552;50.786;4.332;2022-09-09T16:40:49;19.10;99.90
22771;DHT22;11552;50.786;4.332;2022-09-09T16:43:15;19.00;99.90
22771;DHT22;11552;50.786;4.332;2022-09-09T16:45:44;19.20;99.90
22771;DHT22;11552;50.786;4.332;2022-09-09T16:48:10;19.30;99.90
22771;DHT22;11552;50.786;4.332;2022-09-09T16:50:36;19.40;99.90
22771;DHT22;11552;50.786;4.332;2022-09-09T16:53:02;19.30;99.90
22771;DHT22;11552;50.786;4.332;2022-09-09T16:55:31;19.40;99.90
22771;DHT22;11552;50.786;4.332;2022-09-09T16:57:57;19.40;99.90
22771;DHT22;11552;50.786;4.332;2022-09-09T17:00:22;19.40;99.90
22771;DHT22;11552;50.786;4.332;2022-09-09T17:02:48;19.40;99.90
22771;DHT22;11552;50.786;4.332;2022-09-09T17:05:14;19.60;99.90
22771;DHT22;11552;50.786;4.332;2022-09-09T17:07:39;19.70;99.90
22771;DHT22;11552;50.786;4.332;2022-09-09T17:10:05;19.80;99.90
22771;DHT22;11552;50.786;4.332;2022-09-09T17:12:31;19.80;99.90
22771;DHT22;11552;50.786;4.332;2022-09-09T17:14:57;19.80;99.90
22771;DHT22;11552;50.786;4.332;2022-09-09T17:17:24;19.60;99.90
22771;DHT22;11552;50.786;4.332;2022-09-09T17:19:50;19.50;99.90
22771;DHT22;11552;50.786;4.332;2022-09-09T17:22:15;19.30;99.90
22771;DHT22;11552;50.786;4.332;2022-09-09T17:24:41;19.20;99.90
22771;DHT22;11552;50.786;4.332;2022-09-09T17:27:07;18.90;99.90